sensor_id;sensor_type;location;lat;lon;timestamp;P1;durP1;ratioP1;P2;durP2;ratioP2
30466;SDS011;17258;52.560;13.046;2022-07-10T00:09:45;2.00;;;1.23;;
30466;SDS011;17258;52.560;13.046;2022-07-10T00:19:47;1.73;;;0.73;;
30466;SDS011;17258;52.560;13.046;2022-07-10T00:29:48;7.97;;;0.90;;
30466;SDS011;17258;52.560;13.046;2022-07-10T00:39:48;2.83;;;1.27;;
30466;SDS011;17258;52.560;13.046;2022-07-10T00:49:49;1.80;;;0.80;;
30466;SDS011;17258;52.560;13.046;2022-07-10T00:59:50;3.27;;;1.10;;
30466;SDS011;17258;52.560;13.046;2022-07-10T01:09:52;1.13;;;0.73;;
30466;SDS011;17258;52.560;13.046;2022-07-10T01:19:52;1.55;;;0.70;;
30466;SDS011;17258;52.560;13.046;2022-07-10T01:29:53;1.27;;;0.80;;
30466;SDS011;17258;52.560;13.046;2022-07-10T01:39:54;4.13;;;1.10;;
30466;SDS011;17258;52.560;13.046;2022-07-10T01:49:55;4.28;;;1.02;;
30466;SDS011;17258;52.560;13.046;2022-07-10T01:59:56;1.40;;;0.87;;
30466;SDS011;17258;52.560;13.046;2022-07-10T02:09:57;1.60;;;0.70;;
30466;SDS011;17258;52.560;13.046;2022-07-10T02:19:58;1.67;;;1.00;;
30466;SDS011;17258;52.560;13.046;2022-07-10T02:29:58;2.63;;;0.87;;
30466;SDS011;17258;52.560;13.046;2022-07-10T02:39:59;1.77;;;0.70;;
30466;SDS011;17258;52.560;13.046;2022-07-10T02:50:00;1.87;;;0.60;;
30466;SDS011;17258;52.560;13.046;2022-07-10T03:00:00;0.80;;;0.75;;
30466;SDS011;17258;52.560;13.046;2022-07-10T03:10:01;4.20;;;1.15;;
30466;SDS011;17258;52.560;13.046;2022-07-10T03:20:02;1.05;;;0.70;;
30466;SDS011;17258;52.560;13.046;2022-07-10T03:30:04;1.88;;;0.57;;
30466;SDS011;17258;52.560;13.046;2022-07-10T03:40:05;0.63;;;0.63;;
30466;SDS011;17258;52.560;13.046;2022-07-10T03:50:07;1.98;;;0.73;;
30466;SDS011;17258;52.560;13.046;2022-07-10T04:00:09;4.32;;;1.00;;
30466;SDS011;17258;52.560;13.046;2022-07-10T04:10:11;1.05;;;0.70;;
30466;SDS011;17258;52.560;13.046;2022-07-10T04:20:12;2.03;;;1.20;;
30466;SDS011;17258;52.560;13.046;2022-07-10T04:30:13;1.88;;;0.98;;
30466;SDS011;17258;52.560;13.046;2022-07-10T04:40:14;1.70;;;1.20;;
30466;SDS011;17258;52.560;13.046;2022-07-10T04:50:15;3.30;;;3.10;;
30466;SDS011;17258;52.560;13.046;2022-07-10T05:00:15;4.60;;;4.30;;
30466;SDS011;17258;52.560;13.046;2022-07-10T05:10:16;5.93;;;5.63;;
30466;SDS011;17258;52.560;13.046;2022-07-10T05:20:17;10.05;;;9.00;;
30466;SDS011;17258;52.560;13.046;2022-07-10T05:30:18;10.50;;;9.80;;
30466;SDS011;17258;52.560;13.046;2022-07-10T05:40:18;8.87;;;8.27;;
30466;SDS011;17258;52.560;13.046;2022-07-10T05:50:19;5.07;;;4.77;;
30466;SDS011;17258;52.560;13.046;2022-07-10T06:00:20;9.98;;;9.48;;
30466;SDS011;17258;52.560;13.046;2022-07-10T06:10:20;10.50;;;9.90;;
30466;SDS011;17258;52.560;13.046;2022-07-10T06:20:21;10.13;;;9.63;;
30466;SDS011;17258;52.560;13.046;2022-07-10T06:30:22;11.20;;;10.50;;
30466;SDS011;17258;52.560;13.046;2022-07-10T06:40:22;10.17;;;9.53;;
30466;SDS011;17258;52.560;13.046;2022-07-10T06:50:24;9.37;;;8.83;;
30466;SDS011;17258;52.560;13.046;2022-07-10T07:00:26;10.48;;;9.77;;
30466;SDS011;17258;52.560;13.046;2022-07-10T07:10:27;3.40;;;3.20;;
30466;SDS011;17258;52.560;13.046;2022-07-10T07:20:28;1.87;;;1.47;;
30466;SDS011;17258;52.560;13.046;2022-07-10T07:30:48;1.88;;;1.35;;
30466;SDS011;17258;52.560;13.046;2022-07-10T07:40:49;2.67;;;1.38;;
30466;SDS011;17258;52.560;13.046;2022-07-10T07:50:50;2.47;;;1.30;;
30466;SDS011;17258;52.560;13.046;2022-07-10T08:00:50;2.30;;;0.97;;
30466;SDS011;17258;52.560;13.046;2022-07-10T08:10:51;2.83;;;1.20;;
30466;SDS011;17258;52.560;13.046;2022-07-10T08:20:52;3.10;;;1.30;;
30466;SDS011;17258;52.560;13.046;2022-07-10T08:30:52;6.60;;;1.27;;
30466;SDS011;17258;52.560;13.046;2022-07-10T08:40:53;2.77;;;1.30;;
30466;SDS011;17258;52.560;13.046;2022-07-10T08:50:57;2.55;;;1.23;;
30466;SDS011;17258;52.560;13.046;2022-07-10T09:01:04;3.38;;;1.70;;
30466;SDS011;17258;52.560;13.046;2022-07-10T09:11:17;6.13;;;2.07;;
30466;SDS011;17258;52.560;13.046;2022-07-10T09:21:19;4.07;;;1.70;;
30466;SDS011;17258;52.560;13.046;2022-07-10T09:31:20;2.58;;;1.20;;
30466;SDS011;17258;52.560;13.046;2022-07-10T09:51:23;2.15;;;1.20;;
30466;SDS011;17258;52.560;13.046;2022-07-10T10:01:23;6.77;;;1.27;;
30466;SDS011;17258;52.560;13.046;2022-07-10T10:11:26;3.15;;;1.40;;
30466;SDS011;17258;52.560;13.046;2022-07-10T10:21:28;1.48;;;1.00;;
30466;SDS011;17258;52.560;13.046;2022-07-10T10:31:30;2.17;;;1.30;;
30466;SDS011;17258;52.560;13.046;2022-07-10T11:02:21;4.37;;;1.37;;
30466;SDS011;17258;52.560;13.046;2022-07-10T11:12:53;3.78;;;1.23;;
30466;SDS011;17258;52.560;13.046;2022-07-10T11:33:39;1.50;;;0.82;;
30466;SDS011;17258;52.560;13.046;2022-07-10T11:43:48;1.63;;;1.00;;
30466;SDS011;17258;52.560;13.046;2022-07-10T12:04:06;6.97;;;1.23;;
30466;SDS011;17258;52.560;13.046;2022-07-10T12:24:18;3.20;;;1.35;;
30466;SDS011;17258;52.560;13.046;2022-07-10T12:34:20;3.00;;;1.08;;
30466;SDS011;17258;52.560;13.046;2022-07-10T12:44:46;3.75;;;1.70;;
30466;SDS011;17258;52.560;13.046;2022-07-10T12:54:47;3.10;;;1.50;;
30466;SDS011;17258;52.560;13.046;2022-07-10T13:04:54;1.75;;;1.05;;
30466;SDS011;17258;52.560;13.046;2022-07-10T13:14:56;0.95;;;0.70;;
30466;SDS011;17258;52.560;13.046;2022-07-10T13:24:57;2.93;;;0.90;;
30466;SDS011;17258;52.560;13.046;2022-07-10T13:34:58;1.90;;;1.13;;
30466;SDS011;17258;52.560;13.046;2022-07-10T13:44:58;2.35;;;0.90;;
30466;SDS011;17258;52.560;13.046;2022-07-10T13:54:59;4.40;;;0.90;;
30466;SDS011;17258;52.560;13.046;2022-07-10T14:05:00;2.55;;;1.25;;
30466;SDS011;17258;52.560;13.046;2022-07-10T14:15:01;0.97;;;0.83;;
30466;SDS011;17258;52.560;13.046;2022-07-10T14:25:03;1.23;;;0.88;;
30466;SDS011;17258;52.560;13.046;2022-07-10T14:35:06;1.27;;;0.95;;
30466;SDS011;17258;52.560;13.046;2022-07-10T14:45:07;3.70;;;1.17;;
30466;SDS011;17258;52.560;13.046;2022-07-10T14:55:08;3.05;;;1.08;;
30466;SDS011;17258;52.560;13.046;2022-07-10T15:05:09;1.40;;;0.60;;
30466;SDS011;17258;52.560;13.046;2022-07-10T15:15:10;6.17;;;1.00;;
30466;SDS011;17258;52.560;13.046;2022-07-10T15:25:11;1.25;;;0.85;;
30466;SDS011;17258;52.560;13.046;2022-07-10T15:35:11;1.27;;;0.80;;
30466;SDS011;17258;52.560;13.046;2022-07-10T15:45:12;1.23;;;0.80;;
30466;SDS011;17258;52.560;13.046;2022-07-10T15:55:13;1.70;;;1.02;;
30466;SDS011;17258;52.560;13.046;2022-07-10T16:05:14;2.58;;;0.95;;
30466;SDS011;17258;52.560;13.046;2022-07-10T16:15:15;1.20;;;0.97;;
30466;SDS011;17258;52.560;13.046;2022-07-10T16:25:15;7.03;;;1.50;;
30466;SDS011;17258;52.560;13.046;2022-07-10T16:35:34;5.25;;;1.40;;
30466;SDS011;17258;52.560;13.046;2022-07-10T16:45:35;3.53;;;1.50;;
30466;SDS011;17258;52.560;13.046;2022-07-10T16:55:36;1.58;;;1.17;;
30466;SDS011;17258;52.560;13.046;2022-07-10T17:05:37;1.83;;;1.00;;
30466;SDS011;17258;52.560;13.046;2022-07-10T17:15:38;4.50;;;2.00;;
30466;SDS011;17258;52.560;13.046;2022-07-10T17:25:42;5.38;;;1.85;;
30466;SDS011;17258;52.560;13.046;2022-07-10T17:35:44;3.42;;;1.08;;
30466;SDS011;17258;52.560;13.046;2022-07-10T17:45:44;4.37;;;1.13;;
30466;SDS011;17258;52.560;13.046;2022-07-10T17:55:45;4.40;;;1.13;;
30466;SDS011;17258;52.560;13.046;2022-07-10T18:05:46;3.20;;;1.23;;
30466;SDS011;17258;52.560;13.046;2022-07-10T18:15:48;2.10;;;1.08;;
30466;SDS011;17258;52.560;13.046;2022-07-10T18:25:48;1.30;;;1.08;;
30466;SDS011;17258;52.560;13.046;2022-07-10T18:35:51;4.67;;;1.17;;
30466;SDS011;17258;52.560;13.046;2022-07-10T18:45:52;2.20;;;1.27;;
30466;SDS011;17258;52.560;13.046;2022-07-10T18:55:52;2.13;;;1.23;;
30466;SDS011;17258;52.560;13.046;2022-07-10T19:05:53;2.00;;;1.20;;
30466;SDS011;17258;52.560;13.046;2022-07-10T19:15:54;1.57;;;1.00;;
30466;SDS011;17258;52.560;13.046;2022-07-10T19:25:54;4.10;;;1.43;;
30466;SDS011;17258;52.560;13.046;2022-07-10T19:35:55;1.23;;;0.83;;
30466;SDS011;17258;52.560;13.046;2022-07-10T19:45:57;4.80;;;1.10;;
30466;SDS011;17258;52.560;13.046;2022-07-10T19:55:57;1.63;;;1.05;;
30466;SDS011;17258;52.560;13.046;2022-07-10T20:05:58;7.93;;;1.63;;
30466;SDS011;17258;52.560;13.046;2022-07-10T20:15:59;1.45;;;0.85;;
30466;SDS011;17258;52.560;13.046;2022-07-10T20:26:00;3.13;;;1.23;;
30466;SDS011;17258;52.560;13.046;2022-07-10T20:36:01;2.08;;;1.30;;
30466;SDS011;17258;52.560;13.046;2022-07-10T20:46:21;1.20;;;1.10;;
30466;SDS011;17258;52.560;13.046;2022-07-10T20:56:22;2.80;;;1.20;;
30466;SDS011;17258;52.560;13.046;2022-07-10T21:06:22;1.10;;;0.90;;
30466;SDS011;17258;52.560;13.046;2022-07-10T21:16:24;1.17;;;0.98;;
30466;SDS011;17258;52.560;13.046;2022-07-10T21:26:24;2.43;;;1.20;;
30466;SDS011;17258;52.560;13.046;2022-07-10T21:36:25;1.53;;;1.20;;
30466;SDS011;17258;52.560;13.046;2022-07-10T21:46:25;2.53;;;1.43;;
30466;SDS011;17258;52.560;13.046;2022-07-10T21:56:27;1.57;;;0.67;;
30466;SDS011;17258;52.560;13.046;2022-07-10T22:06:27;6.93;;;1.20;;
30466;SDS011;17258;52.560;13.046;2022-07-10T22:16:28;0.77;;;0.77;;
30466;SDS011;17258;52.560;13.046;2022-07-10T22:26:28;4.60;;;1.30;;
30466;SDS011;17258;52.560;13.046;2022-07-10T22:36:29;2.37;;;1.33;;
30466;SDS011;17258;52.560;13.046;2022-07-10T22:46:30;3.43;;;1.40;;
30466;SDS011;17258;52.560;13.046;2022-07-10T22:56:30;1.17;;;1.00;;
30466;SDS011;17258;52.560;13.046;2022-07-10T23:06:31;1.67;;;1.23;;
30466;SDS011;17258;52.560;13.046;2022-07-10T23:16:32;2.07;;;0.90;;
30466;SDS011;17258;52.560;13.046;2022-07-10T23:26:33;5.30;;;0.90;;
30466;SDS011;17258;52.560;13.046;2022-07-10T23:36:33;1.95;;;0.80;;
30466;SDS011;17258;52.560;13.046;2022-07-10T23:46:34;0.80;;;0.80;;
